Main page
METAR-TAF:

METAR-TAF

Airports :

Kassel Airport

Kassel, Germany

latitude: 51-24N, longitude: 009-23E, elevation: 277 m

Current weather observation

The report was made 18 minutes ago, at 07:20 UTC
Wind 8 kt from the East
Temperature 15°C
Humidity 48%
Pressure 1030 hPa
Visibility 10 km or more
no clouds below 1500 m and no cumulonimbus

METAR: EDVK 190720Z 09008KT CAVOK 15/04 Q1030

Time: 09:38 (07:38 UTC)

Forecast

The report was made 2 hours and 16 minutes ago, at 05:22 UTC
Forecast valid from 19 at 06 UTC to 19 at 15 UTC
Wind 5 kt from the East
Visibility 10 km or more
no clouds below 1500 m and no cumulonimbus
Becoming
from 19 at 08 UTC to 19 at 10 UTC
Wind 12 kt from the East

TAF: EDVK 190522Z 1906/1915 09005KT CAVOK BECMG 1908/1910 09012KT

Weather observations and forecasts of more than 4000 airports (METAR and TAF reports).

The available stations are represented by yellow and red dots on the map.

Hover mouse over dot to see the name of the station.

Then click to see weather observations and forecasts.

To change the map : click on the green buttons with a black cross to zoom in, on the green button with a dash to zoom out, or on the green arrows for adjacent maps.


METAR-TAF: